sensor_id;sensor_type;location;lat;lon;timestamp;P1;durP1;ratioP1;P2;durP2;ratioP2
14116;SDS011;7137;51.436;6.544;2024-01-10T00:02:36;8.23;;;4.10;;
14116;SDS011;7137;51.436;6.544;2024-01-10T00:05:37;10.23;;;5.20;;
14116;SDS011;7137;51.436;6.544;2024-01-10T00:08:39;8.53;;;4.27;;
14116;SDS011;7137;51.436;6.544;2024-01-10T00:11:40;8.90;;;5.07;;
14116;SDS011;7137;51.436;6.544;2024-01-10T00:14:42;9.00;;;4.67;;
14116;SDS011;7137;51.436;6.544;2024-01-10T00:17:45;9.20;;;4.63;;
14116;SDS011;7137;51.436;6.544;2024-01-10T00:20:46;10.67;;;5.10;;
14116;SDS011;7137;51.436;6.544;2024-01-10T00:23:49;8.37;;;4.77;;
14116;SDS011;7137;51.436;6.544;2024-01-10T00:26:50;9.40;;;5.20;;
14116;SDS011;7137;51.436;6.544;2024-01-10T00:29:52;9.00;;;5.07;;
14116;SDS011;7137;51.436;6.544;2024-01-10T00:32:57;9.43;;;5.40;;
14116;SDS011;7137;51.436;6.544;2024-01-10T00:35:58;8.40;;;4.40;;
14116;SDS011;7137;51.436;6.544;2024-01-10T00:39:00;10.83;;;5.23;;
14116;SDS011;7137;51.436;6.544;2024-01-10T00:42:02;10.80;;;5.27;;
14116;SDS011;7137;51.436;6.544;2024-01-10T00:45:04;10.00;;;5.37;;
14116;SDS011;7137;51.436;6.544;2024-01-10T00:48:07;11.27;;;5.37;;
14116;SDS011;7137;51.436;6.544;2024-01-10T00:51:09;10.33;;;5.40;;
14116;SDS011;7137;51.436;6.544;2024-01-10T00:54:11;9.97;;;5.00;;
14116;SDS011;7137;51.436;6.544;2024-01-10T00:57:12;10.57;;;5.17;;
14116;SDS011;7137;51.436;6.544;2024-01-10T01:00:14;9.77;;;5.30;;
14116;SDS011;7137;51.436;6.544;2024-01-10T01:03:19;8.13;;;4.23;;
14116;SDS011;7137;51.436;6.544;2024-01-10T01:06:20;9.97;;;5.13;;
14116;SDS011;7137;51.436;6.544;2024-01-10T01:09:22;10.27;;;5.17;;
14116;SDS011;7137;51.436;6.544;2024-01-10T01:12:24;7.07;;;3.93;;
14116;SDS011;7137;51.436;6.544;2024-01-10T01:15:26;7.93;;;4.37;;
14116;SDS011;7137;51.436;6.544;2024-01-10T01:18:29;8.07;;;4.20;;
14116;SDS011;7137;51.436;6.544;2024-01-10T01:21:30;7.97;;;4.10;;
14116;SDS011;7137;51.436;6.544;2024-01-10T01:24:32;11.37;;;5.63;;
14116;SDS011;7137;51.436;6.544;2024-01-10T01:27:33;9.67;;;5.07;;
14116;SDS011;7137;51.436;6.544;2024-01-10T01:30:35;10.67;;;3.47;;
14116;SDS011;7137;51.436;6.544;2024-01-10T01:33:38;9.57;;;5.07;;
14116;SDS011;7137;51.436;6.544;2024-01-10T01:36:39;10.87;;;5.60;;
14116;SDS011;7137;51.436;6.544;2024-01-10T01:39:41;10.50;;;5.40;;
14116;SDS011;7137;51.436;6.544;2024-01-10T01:42:43;6.47;;;3.63;;
14116;SDS011;7137;51.436;6.544;2024-01-10T01:45:45;10.13;;;5.17;;
14116;SDS011;7137;51.436;6.544;2024-01-10T01:48:48;10.17;;;5.63;;
14116;SDS011;7137;51.436;6.544;2024-01-10T01:51:50;9.83;;;5.53;;
14116;SDS011;7137;51.436;6.544;2024-01-10T01:54:52;12.80;;;5.57;;
14116;SDS011;7137;51.436;6.544;2024-01-10T01:57:54;7.13;;;4.07;;
14116;SDS011;7137;51.436;6.544;2024-01-10T02:00:56;11.30;;;5.20;;
14116;SDS011;7137;51.436;6.544;2024-01-10T02:04:00;10.40;;;5.37;;
14116;SDS011;7137;51.436;6.544;2024-01-10T02:07:03;9.97;;;5.43;;
14116;SDS011;7137;51.436;6.544;2024-01-10T02:10:05;9.73;;;5.00;;
14116;SDS011;7137;51.436;6.544;2024-01-10T02:13:07;8.33;;;4.70;;
14116;SDS011;7137;51.436;6.544;2024-01-10T02:16:11;9.13;;;4.90;;
14116;SDS011;7137;51.436;6.544;2024-01-10T02:19:21;14.57;;;5.70;;
14116;SDS011;7137;51.436;6.544;2024-01-10T02:26:21;8.97;;;5.07;;
14116;SDS011;7137;51.436;6.544;2024-01-10T02:29:22;8.70;;;4.47;;
14116;SDS011;7137;51.436;6.544;2024-01-10T02:32:24;9.70;;;4.50;;
14116;SDS011;7137;51.436;6.544;2024-01-10T02:35:26;11.53;;;5.53;;
14116;SDS011;7137;51.436;6.544;2024-01-10T02:38:28;11.37;;;5.10;;
14116;SDS011;7137;51.436;6.544;2024-01-10T02:41:30;9.67;;;5.27;;
14116;SDS011;7137;51.436;6.544;2024-01-10T02:44:32;8.90;;;5.13;;
14116;SDS011;7137;51.436;6.544;2024-01-10T02:47:33;10.57;;;4.97;;
14116;SDS011;7137;51.436;6.544;2024-01-10T02:50:36;10.57;;;5.13;;
14116;SDS011;7137;51.436;6.544;2024-01-10T02:53:38;11.37;;;5.67;;
14116;SDS011;7137;51.436;6.544;2024-01-10T02:56:41;9.43;;;5.50;;
14116;SDS011;7137;51.436;6.544;2024-01-10T02:59:43;10.93;;;5.80;;
14116;SDS011;7137;51.436;6.544;2024-01-10T03:02:44;9.57;;;5.57;;
14116;SDS011;7137;51.436;6.544;2024-01-10T03:05:46;10.93;;;5.57;;
14116;SDS011;7137;51.436;6.544;2024-01-10T03:08:47;10.60;;;5.27;;
14116;SDS011;7137;51.436;6.544;2024-01-10T03:11:51;12.70;;;5.43;;
14116;SDS011;7137;51.436;6.544;2024-01-10T03:14:52;10.20;;;5.53;;
14116;SDS011;7137;51.436;6.544;2024-01-10T03:17:54;10.83;;;5.50;;
14116;SDS011;7137;51.436;6.544;2024-01-10T03:20:55;10.30;;;5.20;;
14116;SDS011;7137;51.436;6.544;2024-01-10T03:23:57;9.50;;;4.83;;
14116;SDS011;7137;51.436;6.544;2024-01-10T03:27:01;8.70;;;4.57;;
14116;SDS011;7137;51.436;6.544;2024-01-10T03:30:05;9.23;;;5.40;;
14116;SDS011;7137;51.436;6.544;2024-01-10T03:33:07;10.63;;;5.40;;
14116;SDS011;7137;51.436;6.544;2024-01-10T03:36:11;11.27;;;5.40;;
14116;SDS011;7137;51.436;6.544;2024-01-10T03:39:13;10.40;;;5.27;;
14116;SDS011;7137;51.436;6.544;2024-01-10T03:42:16;9.87;;;5.50;;
14116;SDS011;7137;51.436;6.544;2024-01-10T03:45:17;9.63;;;5.17;;
14116;SDS011;7137;51.436;6.544;2024-01-10T03:48:22;9.60;;;5.60;;
14116;SDS011;7137;51.436;6.544;2024-01-10T03:51:24;10.93;;;5.40;;
14116;SDS011;7137;51.436;6.544;2024-01-10T03:54:25;10.60;;;5.60;;
14116;SDS011;7137;51.436;6.544;2024-01-10T03:57:28;10.93;;;5.23;;
14116;SDS011;7137;51.436;6.544;2024-01-10T04:00:29;8.70;;;5.20;;
14116;SDS011;7137;51.436;6.544;2024-01-10T04:03:31;10.13;;;5.37;;
14116;SDS011;7137;51.436;6.544;2024-01-10T04:06:32;12.83;;;5.80;;
14116;SDS011;7137;51.436;6.544;2024-01-10T04:09:34;13.23;;;5.87;;
14116;SDS011;7137;51.436;6.544;2024-01-10T04:12:37;9.07;;;5.40;;
14116;SDS011;7137;51.436;6.544;2024-01-10T04:15:39;10.20;;;5.27;;
14116;SDS011;7137;51.436;6.544;2024-01-10T04:18:40;9.93;;;5.70;;
14116;SDS011;7137;51.436;6.544;2024-01-10T04:21:41;13.23;;;6.60;;
14116;SDS011;7137;51.436;6.544;2024-01-10T04:24:43;12.43;;;6.20;;
14116;SDS011;7137;51.436;6.544;2024-01-10T04:27:46;14.00;;;6.53;;
14116;SDS011;7137;51.436;6.544;2024-01-10T04:30:50;11.40;;;5.40;;
14116;SDS011;7137;51.436;6.544;2024-01-10T04:33:51;12.47;;;6.40;;
14116;SDS011;7137;51.436;6.544;2024-01-10T04:36:53;11.23;;;5.83;;
14116;SDS011;7137;51.436;6.544;2024-01-10T04:39:54;10.50;;;6.00;;
14116;SDS011;7137;51.436;6.544;2024-01-10T04:42:57;10.83;;;6.00;;
14116;SDS011;7137;51.436;6.544;2024-01-10T04:45:58;10.10;;;5.90;;
14116;SDS011;7137;51.436;6.544;2024-01-10T04:49:00;11.47;;;5.97;;
14116;SDS011;7137;51.436;6.544;2024-01-10T04:52:01;12.67;;;6.70;;
14116;SDS011;7137;51.436;6.544;2024-01-10T04:55:03;8.57;;;5.70;;
14116;SDS011;7137;51.436;6.544;2024-01-10T04:58:07;9.80;;;6.00;;
14116;SDS011;7137;51.436;6.544;2024-01-10T05:01:09;10.33;;;5.63;;
14116;SDS011;7137;51.436;6.544;2024-01-10T05:04:10;12.47;;;6.37;;
14116;SDS011;7137;51.436;6.544;2024-01-10T05:07:12;11.10;;;6.47;;
14116;SDS011;7137;51.436;6.544;2024-01-10T05:10:13;8.20;;;4.73;;
14116;SDS011;7137;51.436;6.544;2024-01-10T05:13:16;11.17;;;6.00;;
14116;SDS011;7137;51.436;6.544;2024-01-10T05:16:18;12.03;;;6.37;;
14116;SDS011;7137;51.436;6.544;2024-01-10T05:19:19;12.33;;;6.23;;
14116;SDS011;7137;51.436;6.544;2024-01-10T05:22:20;9.70;;;6.47;;
14116;SDS011;7137;51.436;6.544;2024-01-10T05:25:22;12.77;;;6.33;;
14116;SDS011;7137;51.436;6.544;2024-01-10T05:28:25;10.47;;;5.93;;
14116;SDS011;7137;51.436;6.544;2024-01-10T05:31:26;10.07;;;6.33;;
14116;SDS011;7137;51.436;6.544;2024-01-10T05:34:28;12.20;;;7.10;;
14116;SDS011;7137;51.436;6.544;2024-01-10T05:37:29;12.97;;;6.53;;
14116;SDS011;7137;51.436;6.544;2024-01-10T05:40:31;13.07;;;7.03;;
14116;SDS011;7137;51.436;6.544;2024-01-10T05:43:34;11.43;;;6.80;;
14116;SDS011;7137;51.436;6.544;2024-01-10T05:46:36;12.90;;;7.13;;
14116;SDS011;7137;51.436;6.544;2024-01-10T05:49:38;10.60;;;5.50;;
14116;SDS011;7137;51.436;6.544;2024-01-10T05:52:39;11.53;;;6.57;;
14116;SDS011;7137;51.436;6.544;2024-01-10T05:55:41;11.97;;;6.30;;
14116;SDS011;7137;51.436;6.544;2024-01-10T05:58:43;11.60;;;5.80;;
14116;SDS011;7137;51.436;6.544;2024-01-10T06:01:45;11.70;;;6.40;;
14116;SDS011;7137;51.436;6.544;2024-01-10T06:04:46;11.63;;;7.03;;
14116;SDS011;7137;51.436;6.544;2024-01-10T06:07:48;14.67;;;6.87;;
14116;SDS011;7137;51.436;6.544;2024-01-10T06:10:49;12.53;;;7.30;;
14116;SDS011;7137;51.436;6.544;2024-01-10T06:13:52;12.17;;;6.70;;
14116;SDS011;7137;51.436;6.544;2024-01-10T06:16:53;12.37;;;6.47;;
14116;SDS011;7137;51.436;6.544;2024-01-10T06:19:55;10.83;;;6.53;;
14116;SDS011;7137;51.436;6.544;2024-01-10T06:22:59;12.37;;;7.13;;
14116;SDS011;7137;51.436;6.544;2024-01-10T06:26:01;13.30;;;7.07;;
14116;SDS011;7137;51.436;6.544;2024-01-10T06:29:04;12.13;;;6.90;;
14116;SDS011;7137;51.436;6.544;2024-01-10T06:32:05;12.53;;;7.53;;
14116;SDS011;7137;51.436;6.544;2024-01-10T06:35:07;11.83;;;6.60;;
14116;SDS011;7137;51.436;6.544;2024-01-10T06:38:12;15.23;;;6.93;;
14116;SDS011;7137;51.436;6.544;2024-01-10T06:41:13;12.53;;;6.53;;
14116;SDS011;7137;51.436;6.544;2024-01-10T06:44:16;12.57;;;6.40;;
14116;SDS011;7137;51.436;6.544;2024-01-10T06:47:18;12.10;;;6.47;;
14116;SDS011;7137;51.436;6.544;2024-01-10T06:50:21;11.60;;;7.03;;
14116;SDS011;7137;51.436;6.544;2024-01-10T06:53:24;14.10;;;6.70;;
14116;SDS011;7137;51.436;6.544;2024-01-10T06:56:25;14.40;;;6.93;;
14116;SDS011;7137;51.436;6.544;2024-01-10T06:59:28;12.70;;;7.00;;
14116;SDS011;7137;51.436;6.544;2024-01-10T07:02:29;11.93;;;6.63;;
14116;SDS011;7137;51.436;6.544;2024-01-10T07:05:32;12.70;;;6.57;;
14116;SDS011;7137;51.436;6.544;2024-01-10T07:08:33;13.00;;;6.83;;
14116;SDS011;7137;51.436;6.544;2024-01-10T07:11:35;14.33;;;7.27;;
14116;SDS011;7137;51.436;6.544;2024-01-10T07:14:38;12.30;;;6.97;;
14116;SDS011;7137;51.436;6.544;2024-01-10T07:17:39;14.10;;;7.40;;
14116;SDS011;7137;51.436;6.544;2024-01-10T07:20:41;13.50;;;7.00;;
14116;SDS011;7137;51.436;6.544;2024-01-10T07:23:42;15.67;;;7.80;;
14116;SDS011;7137;51.436;6.544;2024-01-10T07:26:44;14.47;;;7.27;;
14116;SDS011;7137;51.436;6.544;2024-01-10T07:29:46;13.93;;;7.33;;
14116;SDS011;7137;51.436;6.544;2024-01-10T07:32:48;13.00;;;6.93;;
14116;SDS011;7137;51.436;6.544;2024-01-10T07:35:49;14.43;;;7.80;;
14116;SDS011;7137;51.436;6.544;2024-01-10T07:38:53;12.63;;;7.20;;
14116;SDS011;7137;51.436;6.544;2024-01-10T07:41:54;14.97;;;7.53;;
14116;SDS011;7137;51.436;6.544;2024-01-10T07:44:57;13.77;;;7.70;;
14116;SDS011;7137;51.436;6.544;2024-01-10T07:47:58;12.97;;;7.10;;
14116;SDS011;7137;51.436;6.544;2024-01-10T07:51:00;14.30;;;8.40;;
14116;SDS011;7137;51.436;6.544;2024-01-10T07:54:01;16.20;;;8.47;;
14116;SDS011;7137;51.436;6.544;2024-01-10T07:57:03;15.10;;;7.07;;
14116;SDS011;7137;51.436;6.544;2024-01-10T08:00:08;15.47;;;8.60;;
14116;SDS011;7137;51.436;6.544;2024-01-10T08:03:10;14.80;;;7.83;;
14116;SDS011;7137;51.436;6.544;2024-01-10T08:06:12;13.93;;;6.40;;
14116;SDS011;7137;51.436;6.544;2024-01-10T08:09:14;15.07;;;8.00;;
14116;SDS011;7137;51.436;6.544;2024-01-10T08:12:15;17.60;;;8.07;;
14116;SDS011;7137;51.436;6.544;2024-01-10T08:15:18;13.67;;;8.00;;
14116;SDS011;7137;51.436;6.544;2024-01-10T08:18:20;16.03;;;8.40;;
14116;SDS011;7137;51.436;6.544;2024-01-10T08:21:22;18.23;;;8.73;;
14116;SDS011;7137;51.436;6.544;2024-01-10T08:24:23;15.90;;;7.77;;
14116;SDS011;7137;51.436;6.544;2024-01-10T08:27:25;17.37;;;8.60;;
14116;SDS011;7137;51.436;6.544;2024-01-10T08:30:28;15.10;;;9.17;;
14116;SDS011;7137;51.436;6.544;2024-01-10T08:33:29;18.27;;;8.00;;
14116;SDS011;7137;51.436;6.544;2024-01-10T08:36:31;14.30;;;8.80;;
14116;SDS011;7137;51.436;6.544;2024-01-10T08:39:32;16.23;;;8.97;;
14116;SDS011;7137;51.436;6.544;2024-01-10T08:42:34;17.07;;;8.67;;
14116;SDS011;7137;51.436;6.544;2024-01-10T08:45:37;15.93;;;8.90;;
14116;SDS011;7137;51.436;6.544;2024-01-10T08:48:38;14.37;;;8.50;;
14116;SDS011;7137;51.436;6.544;2024-01-10T08:51:40;16.93;;;9.37;;
14116;SDS011;7137;51.436;6.544;2024-01-10T08:54:43;15.17;;;9.50;;
14116;SDS011;7137;51.436;6.544;2024-01-10T08:57:45;16.73;;;9.33;;
14116;SDS011;7137;51.436;6.544;2024-01-10T09:00:48;16.80;;;9.33;;
14116;SDS011;7137;51.436;6.544;2024-01-10T09:03:50;15.97;;;8.67;;
14116;SDS011;7137;51.436;6.544;2024-01-10T09:06:51;17.63;;;9.40;;
14116;SDS011;7137;51.436;6.544;2024-01-10T09:09:52;17.83;;;9.03;;
14116;SDS011;7137;51.436;6.544;2024-01-10T09:12:54;20.00;;;9.53;;
14116;SDS011;7137;51.436;6.544;2024-01-10T09:15:57;15.97;;;9.37;;
14116;SDS011;7137;51.436;6.544;2024-01-10T09:18:58;14.30;;;7.90;;
14116;SDS011;7137;51.436;6.544;2024-01-10T09:22:00;16.43;;;9.40;;
14116;SDS011;7137;51.436;6.544;2024-01-10T09:25:02;16.60;;;9.53;;
14116;SDS011;7137;51.436;6.544;2024-01-10T09:28:05;19.17;;;10.23;;
14116;SDS011;7137;51.436;6.544;2024-01-10T09:31:08;15.90;;;9.07;;
14116;SDS011;7137;51.436;6.544;2024-01-10T09:34:10;16.50;;;9.67;;
14116;SDS011;7137;51.436;6.544;2024-01-10T09:37:11;18.50;;;10.53;;
14116;SDS011;7137;51.436;6.544;2024-01-10T09:40:14;20.10;;;11.10;;
14116;SDS011;7137;51.436;6.544;2024-01-10T09:43:16;17.37;;;10.00;;
14116;SDS011;7137;51.436;6.544;2024-01-10T09:46:19;17.80;;;10.03;;
14116;SDS011;7137;51.436;6.544;2024-01-10T09:49:20;18.93;;;11.00;;
14116;SDS011;7137;51.436;6.544;2024-01-10T09:52:23;16.97;;;10.50;;
14116;SDS011;7137;51.436;6.544;2024-01-10T09:55:25;16.73;;;10.03;;
14116;SDS011;7137;51.436;6.544;2024-01-10T09:58:31;21.50;;;11.13;;
14116;SDS011;7137;51.436;6.544;2024-01-10T10:01:40;18.47;;;11.17;;
14116;SDS011;7137;51.436;6.544;2024-01-10T10:04:41;18.63;;;11.63;;
14116;SDS011;7137;51.436;6.544;2024-01-10T10:07:48;17.37;;;10.77;;
14116;SDS011;7137;51.436;6.544;2024-01-10T10:10:51;20.87;;;9.90;;
14116;SDS011;7137;51.436;6.544;2024-01-10T10:13:52;16.50;;;10.60;;
14116;SDS011;7137;51.436;6.544;2024-01-10T10:16:55;18.17;;;9.93;;
14116;SDS011;7137;51.436;6.544;2024-01-10T10:19:58;17.70;;;10.20;;
14116;SDS011;7137;51.436;6.544;2024-01-10T10:23:04;17.80;;;9.80;;
14116;SDS011;7137;51.436;6.544;2024-01-10T10:26:10;16.87;;;10.67;;
14116;SDS011;7137;51.436;6.544;2024-01-10T10:29:16;19.83;;;11.07;;
14116;SDS011;7137;51.436;6.544;2024-01-10T10:32:20;17.37;;;10.50;;
14116;SDS011;7137;51.436;6.544;2024-01-10T10:35:22;19.47;;;10.47;;
14116;SDS011;7137;51.436;6.544;2024-01-10T10:38:23;19.27;;;10.47;;
14116;SDS011;7137;51.436;6.544;2024-01-10T10:41:25;20.00;;;11.00;;
14116;SDS011;7137;51.436;6.544;2024-01-10T10:44:28;19.37;;;10.77;;
14116;SDS011;7137;51.436;6.544;2024-01-10T10:47:35;16.13;;;10.03;;
14116;SDS011;7137;51.436;6.544;2024-01-10T10:50:38;19.90;;;11.33;;
14116;SDS011;7137;51.436;6.544;2024-01-10T10:53:39;19.37;;;10.97;;
14116;SDS011;7137;51.436;6.544;2024-01-10T10:56:45;20.00;;;11.37;;
14116;SDS011;7137;51.436;6.544;2024-01-10T10:59:47;18.10;;;10.90;;
14116;SDS011;7137;51.436;6.544;2024-01-10T11:02:53;20.03;;;11.40;;
14116;SDS011;7137;51.436;6.544;2024-01-10T11:05:55;16.33;;;10.90;;
14116;SDS011;7137;51.436;6.544;2024-01-10T11:08:59;17.63;;;11.40;;
14116;SDS011;7137;51.436;6.544;2024-01-10T11:12:15;16.60;;;11.40;;
14116;SDS011;7137;51.436;6.544;2024-01-10T11:15:37;18.00;;;11.03;;
14116;SDS011;7137;51.436;6.544;2024-01-10T11:19:14;20.20;;;11.67;;
14116;SDS011;7137;51.436;6.544;2024-01-10T11:22:33;18.87;;;11.07;;
14116;SDS011;7137;51.436;6.544;2024-01-10T11:25:44;17.57;;;10.80;;
14116;SDS011;7137;51.436;6.544;2024-01-10T11:28:46;21.13;;;11.53;;
14116;SDS011;7137;51.436;6.544;2024-01-10T11:31:50;18.00;;;11.87;;
14116;SDS011;7137;51.436;6.544;2024-01-10T11:34:56;21.10;;;11.53;;
14116;SDS011;7137;51.436;6.544;2024-01-10T11:37:59;21.07;;;11.67;;
14116;SDS011;7137;51.436;6.544;2024-01-10T11:41:01;19.60;;;11.47;;
14116;SDS011;7137;51.436;6.544;2024-01-10T11:47:28;17.93;;;12.30;;
14116;SDS011;7137;51.436;6.544;2024-01-10T11:50:31;19.77;;;11.33;;
14116;SDS011;7137;51.436;6.544;2024-01-10T11:53:42;19.73;;;11.73;;
14116;SDS011;7137;51.436;6.544;2024-01-10T11:56:46;21.40;;;12.50;;
14116;SDS011;7137;51.436;6.544;2024-01-10T11:59:48;19.53;;;11.37;;
14116;SDS011;7137;51.436;6.544;2024-01-10T12:02:51;17.47;;;11.23;;
14116;SDS011;7137;51.436;6.544;2024-01-10T12:05:54;19.40;;;12.13;;
14116;SDS011;7137;51.436;6.544;2024-01-10T12:08:56;20.43;;;12.47;;
14116;SDS011;7137;51.436;6.544;2024-01-10T12:11:58;18.87;;;11.70;;
14116;SDS011;7137;51.436;6.544;2024-01-10T12:15:00;21.57;;;12.23;;
14116;SDS011;7137;51.436;6.544;2024-01-10T12:18:01;19.97;;;11.30;;
14116;SDS011;7137;51.436;6.544;2024-01-10T12:21:05;17.93;;;10.83;;
14116;SDS011;7137;51.436;6.544;2024-01-10T12:24:08;18.80;;;11.10;;
14116;SDS011;7137;51.436;6.544;2024-01-10T12:27:10;19.80;;;12.43;;
14116;SDS011;7137;51.436;6.544;2024-01-10T12:30:11;18.80;;;11.53;;
14116;SDS011;7137;51.436;6.544;2024-01-10T12:33:13;20.17;;;12.13;;
14116;SDS011;7137;51.436;6.544;2024-01-10T12:36:16;18.83;;;11.93;;
14116;SDS011;7137;51.436;6.544;2024-01-10T12:39:19;19.33;;;11.87;;
14116;SDS011;7137;51.436;6.544;2024-01-10T12:42:23;20.17;;;11.50;;
14116;SDS011;7137;51.436;6.544;2024-01-10T12:45:25;19.77;;;12.60;;
14116;SDS011;7137;51.436;6.544;2024-01-10T12:48:26;16.93;;;11.20;;
14116;SDS011;7137;51.436;6.544;2024-01-10T12:51:29;19.13;;;11.47;;
14116;SDS011;7137;51.436;6.544;2024-01-10T12:54:31;19.77;;;11.20;;
14116;SDS011;7137;51.436;6.544;2024-01-10T12:57:33;20.27;;;11.77;;
14116;SDS011;7137;51.436;6.544;2024-01-10T13:00:34;24.37;;;12.50;;
14116;SDS011;7137;51.436;6.544;2024-01-10T13:03:36;24.60;;;12.80;;
14116;SDS011;7137;51.436;6.544;2024-01-10T13:06:39;20.80;;;11.07;;
14116;SDS011;7137;51.436;6.544;2024-01-10T13:09:41;19.30;;;11.93;;
14116;SDS011;7137;51.436;6.544;2024-01-10T13:12:42;20.40;;;11.90;;
14116;SDS011;7137;51.436;6.544;2024-01-10T13:15:45;21.37;;;12.47;;
14116;SDS011;7137;51.436;6.544;2024-01-10T13:18:46;19.77;;;12.00;;
14116;SDS011;7137;51.436;6.544;2024-01-10T13:21:49;19.23;;;12.17;;
14116;SDS011;7137;51.436;6.544;2024-01-10T13:24:51;18.83;;;11.20;;
14116;SDS011;7137;51.436;6.544;2024-01-10T13:27:52;19.97;;;12.03;;
14116;SDS011;7137;51.436;6.544;2024-01-10T13:30:54;20.10;;;11.77;;
14116;SDS011;7137;51.436;6.544;2024-01-10T13:33:56;21.20;;;12.77;;
14116;SDS011;7137;51.436;6.544;2024-01-10T13:36:59;20.67;;;12.17;;
14116;SDS011;7137;51.436;6.544;2024-01-10T13:40:02;20.00;;;11.57;;
14116;SDS011;7137;51.436;6.544;2024-01-10T13:43:05;17.87;;;11.33;;
14116;SDS011;7137;51.436;6.544;2024-01-10T13:46:07;18.27;;;11.60;;
14116;SDS011;7137;51.436;6.544;2024-01-10T13:49:08;19.80;;;11.97;;
14116;SDS011;7137;51.436;6.544;2024-01-10T13:52:11;21.30;;;12.03;;
14116;SDS011;7137;51.436;6.544;2024-01-10T13:55:12;19.03;;;11.83;;
14116;SDS011;7137;51.436;6.544;2024-01-10T13:58:14;18.03;;;11.67;;
14116;SDS011;7137;51.436;6.544;2024-01-10T14:01:15;21.23;;;12.13;;
14116;SDS011;7137;51.436;6.544;2024-01-10T14:04:17;18.93;;;11.80;;
14116;SDS011;7137;51.436;6.544;2024-01-10T14:07:20;22.97;;;12.40;;
14116;SDS011;7137;51.436;6.544;2024-01-10T14:10:21;22.70;;;12.87;;
14116;SDS011;7137;51.436;6.544;2024-01-10T14:13:23;19.70;;;12.57;;
14116;SDS011;7137;51.436;6.544;2024-01-10T14:16:25;21.63;;;13.20;;
14116;SDS011;7137;51.436;6.544;2024-01-10T14:19:27;20.27;;;12.80;;
14116;SDS011;7137;51.436;6.544;2024-01-10T14:22:30;19.87;;;12.17;;
14116;SDS011;7137;51.436;6.544;2024-01-10T14:25:32;19.43;;;12.00;;
14116;SDS011;7137;51.436;6.544;2024-01-10T14:28:33;20.47;;;12.20;;
14116;SDS011;7137;51.436;6.544;2024-01-10T14:31:34;20.47;;;12.70;;
14116;SDS011;7137;51.436;6.544;2024-01-10T14:34:36;19.20;;;12.70;;
14116;SDS011;7137;51.436;6.544;2024-01-10T14:37:41;19.80;;;11.87;;
14116;SDS011;7137;51.436;6.544;2024-01-10T14:40:43;20.70;;;13.20;;
14116;SDS011;7137;51.436;6.544;2024-01-10T14:43:44;21.63;;;13.27;;
14116;SDS011;7137;51.436;6.544;2024-01-10T14:46:46;20.83;;;13.27;;
14116;SDS011;7137;51.436;6.544;2024-01-10T14:49:47;22.43;;;13.03;;
14116;SDS011;7137;51.436;6.544;2024-01-10T14:52:50;22.67;;;13.67;;
14116;SDS011;7137;51.436;6.544;2024-01-10T14:55:51;19.37;;;12.63;;
14116;SDS011;7137;51.436;6.544;2024-01-10T14:58:53;19.43;;;12.53;;
14116;SDS011;7137;51.436;6.544;2024-01-10T15:01:54;20.80;;;12.80;;
14116;SDS011;7137;51.436;6.544;2024-01-10T15:04:56;21.67;;;12.80;;
14116;SDS011;7137;51.436;6.544;2024-01-10T15:07:59;20.37;;;12.30;;
14116;SDS011;7137;51.436;6.544;2024-01-10T15:11:01;18.83;;;12.30;;
14116;SDS011;7137;51.436;6.544;2024-01-10T15:14:02;21.73;;;12.40;;
14116;SDS011;7137;51.436;6.544;2024-01-10T15:17:05;20.10;;;12.30;;
14116;SDS011;7137;51.436;6.544;2024-01-10T15:20:08;19.70;;;11.97;;
14116;SDS011;7137;51.436;6.544;2024-01-10T15:23:11;20.03;;;12.83;;
14116;SDS011;7137;51.436;6.544;2024-01-10T15:26:14;18.47;;;12.60;;
14116;SDS011;7137;51.436;6.544;2024-01-10T15:29:16;22.43;;;12.90;;
14116;SDS011;7137;51.436;6.544;2024-01-10T15:32:17;19.03;;;12.67;;
14116;SDS011;7137;51.436;6.544;2024-01-10T15:35:19;21.30;;;12.13;;
14116;SDS011;7137;51.436;6.544;2024-01-10T15:38:22;19.77;;;12.60;;
14116;SDS011;7137;51.436;6.544;2024-01-10T15:41:24;22.00;;;12.70;;
14116;SDS011;7137;51.436;6.544;2024-01-10T15:44:25;18.73;;;11.57;;
14116;SDS011;7137;51.436;6.544;2024-01-10T15:47:28;19.83;;;12.57;;
14116;SDS011;7137;51.436;6.544;2024-01-10T15:50:29;19.50;;;11.60;;
14116;SDS011;7137;51.436;6.544;2024-01-10T15:53:32;19.03;;;11.10;;
14116;SDS011;7137;51.436;6.544;2024-01-10T15:56:34;17.97;;;11.27;;
14116;SDS011;7137;51.436;6.544;2024-01-10T15:59:38;20.03;;;11.77;;
14116;SDS011;7137;51.436;6.544;2024-01-10T16:02:40;25.20;;;12.77;;
14116;SDS011;7137;51.436;6.544;2024-01-10T16:05:41;17.87;;;11.50;;
14116;SDS011;7137;51.436;6.544;2024-01-10T16:08:44;19.33;;;11.80;;
14116;SDS011;7137;51.436;6.544;2024-01-10T16:11:46;20.03;;;12.00;;
14116;SDS011;7137;51.436;6.544;2024-01-10T16:14:47;23.17;;;12.33;;
14116;SDS011;7137;51.436;6.544;2024-01-10T16:17:49;19.60;;;12.17;;
14116;SDS011;7137;51.436;6.544;2024-01-10T16:20:50;20.47;;;12.40;;
14116;SDS011;7137;51.436;6.544;2024-01-10T16:23:53;23.27;;;14.10;;
14116;SDS011;7137;51.436;6.544;2024-01-10T16:26:55;21.67;;;14.03;;
14116;SDS011;7137;51.436;6.544;2024-01-10T16:29:56;23.47;;;14.93;;
14116;SDS011;7137;51.436;6.544;2024-01-10T16:32:57;23.50;;;15.00;;
14116;SDS011;7137;51.436;6.544;2024-01-10T16:35:59;25.07;;;15.23;;
14116;SDS011;7137;51.436;6.544;2024-01-10T16:39:02;22.17;;;14.63;;
14116;SDS011;7137;51.436;6.544;2024-01-10T16:42:04;23.67;;;14.23;;
14116;SDS011;7137;51.436;6.544;2024-01-10T16:45:06;22.43;;;14.20;;
14116;SDS011;7137;51.436;6.544;2024-01-10T16:48:09;22.30;;;14.50;;
14116;SDS011;7137;51.436;6.544;2024-01-10T16:51:11;23.60;;;14.60;;
14116;SDS011;7137;51.436;6.544;2024-01-10T16:54:14;21.63;;;14.47;;
14116;SDS011;7137;51.436;6.544;2024-01-10T16:57:15;23.67;;;14.60;;
14116;SDS011;7137;51.436;6.544;2024-01-10T17:00:17;23.23;;;15.10;;
14116;SDS011;7137;51.436;6.544;2024-01-10T17:03:19;22.73;;;13.53;;
14116;SDS011;7137;51.436;6.544;2024-01-10T17:06:21;22.40;;;14.17;;
14116;SDS011;7137;51.436;6.544;2024-01-10T17:09:24;23.37;;;14.00;;
14116;SDS011;7137;51.436;6.544;2024-01-10T17:12:25;25.03;;;14.33;;
14116;SDS011;7137;51.436;6.544;2024-01-10T17:15:27;22.10;;;14.27;;
14116;SDS011;7137;51.436;6.544;2024-01-10T17:18:28;21.40;;;14.50;;
14116;SDS011;7137;51.436;6.544;2024-01-10T17:21:29;23.27;;;14.27;;
14116;SDS011;7137;51.436;6.544;2024-01-10T17:24:32;20.80;;;14.43;;
14116;SDS011;7137;51.436;6.544;2024-01-10T17:27:35;23.90;;;14.67;;
14116;SDS011;7137;51.436;6.544;2024-01-10T17:30:37;23.53;;;14.40;;
14116;SDS011;7137;51.436;6.544;2024-01-10T17:33:38;21.67;;;14.50;;
14116;SDS011;7137;51.436;6.544;2024-01-10T17:36:40;22.43;;;13.80;;
14116;SDS011;7137;51.436;6.544;2024-01-10T17:39:43;21.13;;;14.13;;
14116;SDS011;7137;51.436;6.544;2024-01-10T17:42:44;22.47;;;14.53;;
14116;SDS011;7137;51.436;6.544;2024-01-10T17:45:46;22.53;;;14.13;;
14116;SDS011;7137;51.436;6.544;2024-01-10T17:48:47;22.60;;;12.93;;
14116;SDS011;7137;51.436;6.544;2024-01-10T17:51:49;24.97;;;14.07;;
14116;SDS011;7137;51.436;6.544;2024-01-10T17:54:52;23.20;;;15.33;;
14116;SDS011;7137;51.436;6.544;2024-01-10T17:57:53;21.50;;;12.70;;
14116;SDS011;7137;51.436;6.544;2024-01-10T18:00:55;22.97;;;14.03;;
14116;SDS011;7137;51.436;6.544;2024-01-10T18:03:56;24.23;;;14.20;;
14116;SDS011;7137;51.436;6.544;2024-01-10T18:06:57;24.97;;;15.50;;
14116;SDS011;7137;51.436;6.544;2024-01-10T18:10:00;22.37;;;14.37;;
14116;SDS011;7137;51.436;6.544;2024-01-10T18:13:03;20.73;;;13.60;;
14116;SDS011;7137;51.436;6.544;2024-01-10T18:16:05;23.40;;;13.60;;
14116;SDS011;7137;51.436;6.544;2024-01-10T18:19:06;21.60;;;12.87;;
14116;SDS011;7137;51.436;6.544;2024-01-10T18:22:08;26.33;;;13.97;;